Terminal Aerodrome Forecast
Issued by NWS Jackson, MS

Home | Current Version | Previous Version | Text Only | Print | Product List | Glossary On
Versions: 1 2 3 4 5 6 7 8 9 10 11 12
000
FTUS44 KJAN 292320
TAFMEI
TAF
KMEI 292320Z 3000/3024 13006KT P6SM SCT080
     FM300900 00000KT 5SM BR BKN020
     FM301600 10005KT P6SM SCT040=

USA.gov is the U.S. government's official web portal to all federal, state and local government web resources and services.